createdAt,value
2022-12-12T00:00:22.348Z,-1.50
2022-12-12T00:02:49.157Z,-1.50
2022-12-12T00:05:17.224Z,-1.50
2022-12-12T00:07:46.083Z,-1.50
2022-12-12T00:10:13.417Z,-1.50
2022-12-12T00:12:40.674Z,-1.40
2022-12-12T00:15:07.661Z,-1.40
2022-12-12T00:17:34.423Z,-1.50
2022-12-12T00:20:01.239Z,-1.50
2022-12-12T00:22:27.973Z,-1.50
2022-12-12T00:24:54.599Z,-1.50
2022-12-12T00:27:21.517Z,-1.50
2022-12-12T00:29:52.159Z,-1.50
2022-12-12T00:32:19.246Z,-1.50
2022-12-12T00:34:45.896Z,-1.60
2022-12-12T00:37:12.541Z,-1.60
2022-12-12T00:39:39.242Z,-1.60
2022-12-12T00:42:06.047Z,-1.60
2022-12-12T00:44:32.690Z,-1.60
2022-12-12T00:46:59.366Z,-1.60
2022-12-12T00:49:26.778Z,-1.50
2022-12-12T00:51:53.518Z,-1.50
2022-12-12T00:54:20.177Z,-1.60
2022-12-12T00:56:46.818Z,-1.60
2022-12-12T00:59:17.705Z,-1.70
2022-12-12T01:01:44.857Z,-1.80
2022-12-12T01:04:11.647Z,-1.80
2022-12-12T01:06:38.398Z,-1.80
2022-12-12T01:09:04.979Z,-1.80
2022-12-12T01:11:31.644Z,-1.70
2022-12-12T01:13:58.256Z,-1.80
2022-12-12T01:16:25.041Z,-1.90
2022-12-12T01:18:51.777Z,-1.90
2022-12-12T01:21:19.321Z,-1.90
2022-12-12T01:23:46.049Z,-1.90
2022-12-12T01:26:14.735Z,-1.90
2022-12-12T01:28:42.535Z,-1.90
2022-12-12T01:31:12.780Z,-1.80
2022-12-12T01:33:39.538Z,-1.80
2022-12-12T01:36:06.725Z,-1.70
2022-12-12T01:38:33.345Z,-1.70
2022-12-12T01:41:00.016Z,-1.70
2022-12-12T01:43:28.954Z,-1.60
2022-12-12T01:45:59.035Z,-1.60
2022-12-12T01:48:28.771Z,-1.70
2022-12-12T01:50:56.472Z,-1.70
2022-12-12T01:53:23.752Z,-1.60
2022-12-12T01:55:50.576Z,-1.60
2022-12-12T01:58:17.281Z,-1.60
2022-12-12T02:00:44.008Z,-1.60
2022-12-12T02:03:10.744Z,-1.60
2022-12-12T02:05:39.480Z,-1.60
2022-12-12T02:08:06.489Z,-1.60
2022-12-12T02:10:33.454Z,-1.70
2022-12-12T02:13:02.174Z,-1.70
2022-12-12T02:15:31.536Z,-1.80
2022-12-12T02:18:02.166Z,-1.80
2022-12-12T02:20:47.695Z,-1.80
2022-12-12T02:23:23.548Z,-1.80
2022-12-12T02:25:50.122Z,-1.80
2022-12-12T02:28:32.097Z,-1.80
2022-12-12T02:31:11.196Z,-1.80
2022-12-12T02:33:56.765Z,-1.70
2022-12-12T02:36:35.624Z,-1.80
2022-12-12T02:39:13.774Z,-1.80
2022-12-12T02:41:47.231Z,-1.90
2022-12-12T02:44:18.808Z,-1.90
2022-12-12T02:47:03.755Z,-2.00
2022-12-12T02:49:50.963Z,-2.00
2022-12-12T02:52:18.002Z,-2.00
2022-12-12T02:54:44.808Z,-1.90
2022-12-12T02:57:18.835Z,-2.00
2022-12-12T02:59:47.770Z,-2.00
2022-12-12T03:02:43.965Z,-2.10
2022-12-12T03:05:55.123Z,-2.10
2022-12-12T03:08:30.662Z,-2.20
2022-12-12T03:10:58.620Z,-2.20
2022-12-12T03:13:25.218Z,-2.10
2022-12-12T03:16:10.826Z,-2.10
2022-12-12T03:18:42.987Z,-2.10
2022-12-12T03:21:18.102Z,-2.10
2022-12-12T03:23:47.790Z,-2.20
2022-12-12T03:26:14.384Z,-2.20
2022-12-12T03:28:46.726Z,-2.20
2022-12-12T03:31:14.742Z,-2.20
2022-12-12T03:33:44.072Z,-2.20
2022-12-12T03:36:23.803Z,-2.20
2022-12-12T03:38:57.310Z,-2.20
2022-12-12T03:41:38.072Z,-2.30
2022-12-12T03:44:04.710Z,-2.40
2022-12-12T03:46:34.254Z,-2.40
2022-12-12T03:49:15.260Z,-2.30
2022-12-12T03:51:54.925Z,-2.40
2022-12-12T03:54:23.868Z,-2.40
2022-12-12T03:56:50.475Z,-2.30
2022-12-12T03:59:27.089Z,-2.30
2022-12-12T04:01:57.422Z,-2.30
2022-12-12T04:04:28.993Z,-2.20
2022-12-12T04:07:02.606Z,-2.20
2022-12-12T04:09:48.536Z,-2.20
2022-12-12T04:12:33.760Z,-2.20
2022-12-12T04:15:00.366Z,-2.20
2022-12-12T04:17:33.764Z,-2.30
2022-12-12T04:20:22.910Z,-2.20
2022-12-12T04:23:18.212Z,-2.30
2022-12-12T04:26:20.036Z,-2.30
2022-12-12T04:28:51.190Z,-2.40
2022-12-12T04:31:18.785Z,-2.40
2022-12-12T04:33:47.727Z,-2.50
2022-12-12T04:36:14.945Z,-2.40
2022-12-12T04:38:42.498Z,-2.50
2022-12-12T04:41:10.436Z,-2.50
2022-12-12T04:43:38.385Z,-2.60
2022-12-12T04:46:07.297Z,-2.60
2022-12-12T04:48:38.414Z,-2.60
2022-12-12T04:51:09.356Z,-2.50
2022-12-12T04:53:38.691Z,-2.50
2022-12-12T04:56:07.401Z,-2.50
2022-12-12T04:58:34.481Z,-2.40
2022-12-12T05:01:09.613Z,-2.40
2022-12-12T05:03:41.713Z,-2.40
2022-12-12T05:06:10.383Z,-2.40
2022-12-12T05:08:42.809Z,-2.40
2022-12-12T05:11:09.894Z,-2.40
2022-12-12T05:13:38.298Z,-2.40
2022-12-12T05:16:13.052Z,-2.40
2022-12-12T05:18:39.714Z,-2.50
2022-12-12T05:21:06.391Z,-2.50
2022-12-12T05:23:34.960Z,-2.50
2022-12-12T05:26:28.213Z,-2.50
2022-12-12T05:28:55.269Z,-2.40
2022-12-12T05:31:21.988Z,-2.40
2022-12-12T05:33:49.085Z,-2.40
2022-12-12T05:36:16.250Z,-2.30
2022-12-12T05:38:43.153Z,-2.30
2022-12-12T05:41:10.168Z,-2.30
2022-12-12T05:43:37.208Z,-2.30
2022-12-12T05:46:04.341Z,-2.30
2022-12-12T05:48:31.108Z,-2.20
2022-12-12T05:50:57.828Z,-2.20
2022-12-12T05:53:24.483Z,-2.20
2022-12-12T05:55:54.002Z,-2.20
2022-12-12T05:58:20.770Z,-2.20
2022-12-12T06:00:51.066Z,-2.20
2022-12-12T06:03:17.833Z,-2.20
2022-12-12T06:05:44.584Z,-2.20
2022-12-12T06:08:11.424Z,-2.20
2022-12-12T06:10:38.133Z,-2.20
2022-12-12T06:13:04.769Z,-2.20
2022-12-12T06:15:31.724Z,-2.20
2022-12-12T06:17:58.607Z,-2.20
2022-12-12T06:20:25.472Z,-2.20
2022-12-12T06:22:53.979Z,-2.20
2022-12-12T06:25:21.266Z,-2.20
2022-12-12T06:27:48.001Z,-2.20
2022-12-12T06:30:14.942Z,-2.30
2022-12-12T06:32:41.891Z,-2.30
2022-12-12T06:35:09.304Z,-2.40
2022-12-12T06:37:36.269Z,-2.40
2022-12-12T06:40:03.377Z,-2.40
2022-12-12T06:42:30.022Z,-2.40
2022-12-12T06:44:56.665Z,-2.40
2022-12-12T06:47:23.335Z,-2.40
2022-12-12T06:49:49.957Z,-2.40
2022-12-12T06:52:16.637Z,-2.40
2022-12-12T06:54:43.309Z,-2.50
2022-12-12T06:57:09.954Z,-2.50
2022-12-12T06:59:36.621Z,-2.60
2022-12-12T07:02:03.454Z,-2.40
2022-12-12T07:04:30.251Z,-2.40
2022-12-12T07:06:56.942Z,-2.20
2022-12-12T07:09:23.661Z,-2.20
2022-12-12T07:11:50.356Z,-2.20
2022-12-12T07:14:17.373Z,-2.10
2022-12-12T07:16:44.057Z,-2.10
2022-12-12T07:19:10.768Z,-2.00
2022-12-12T07:21:38.271Z,-2.00
2022-12-12T07:24:05.028Z,-2.00
2022-12-12T07:26:31.645Z,-2.00
2022-12-12T07:28:58.296Z,-2.00
2022-12-12T07:31:26.540Z,-2.00
2022-12-12T07:33:54.588Z,-2.00
2022-12-12T07:36:21.341Z,-1.90
2022-12-12T07:38:48.047Z,-1.90
2022-12-12T07:41:16.504Z,-1.90
2022-12-12T07:43:44.863Z,-1.90
2022-12-12T07:46:14.890Z,-1.80
2022-12-12T07:48:41.850Z,-1.80
2022-12-12T07:51:08.922Z,-1.80
2022-12-12T07:53:35.576Z,-1.80
2022-12-12T07:56:04.813Z,-1.80
2022-12-12T07:58:31.464Z,-1.80
2022-12-12T08:00:58.176Z,-1.70
2022-12-12T08:03:25.339Z,-1.60
2022-12-12T08:05:52.029Z,-1.50
2022-12-12T08:08:18.778Z,-1.40
2022-12-12T08:10:45.411Z,-1.30
2022-12-12T08:13:12.054Z,-1.10
2022-12-12T08:15:38.807Z,-1.10
2022-12-12T08:18:05.483Z,-0.90
2022-12-12T08:20:32.144Z,-0.80
2022-12-12T08:22:59.062Z,-0.80
2022-12-12T08:25:25.701Z,-0.80
2022-12-12T08:27:52.305Z,-0.80
2022-12-12T08:30:19.110Z,-0.80
2022-12-12T08:32:45.744Z,-0.80
2022-12-12T08:35:12.628Z,-0.80
2022-12-12T08:37:39.502Z,-0.80
2022-12-12T08:40:06.478Z,-0.80
2022-12-12T08:42:33.132Z,-0.90
2022-12-12T08:44:59.774Z,-0.90
2022-12-12T08:47:27.185Z,-0.90
2022-12-12T08:49:53.805Z,-0.80
2022-12-12T08:52:20.564Z,-0.70
2022-12-12T08:54:47.238Z,-0.60
2022-12-12T08:57:13.918Z,-0.60
2022-12-12T08:59:40.681Z,-0.60
2022-12-12T09:02:08.877Z,-0.50
2022-12-12T09:04:35.666Z,-0.50
2022-12-12T09:07:08.088Z,-0.50
2022-12-12T09:09:35.235Z,-0.50
2022-12-12T09:12:02.090Z,-0.40
2022-12-12T09:14:28.705Z,-0.50
2022-12-12T09:16:55.523Z,-0.40
2022-12-12T09:19:22.237Z,-0.40
2022-12-12T09:21:48.827Z,-0.40
2022-12-12T09:24:15.477Z,-0.20
2022-12-12T09:26:42.259Z,-0.20
2022-12-12T09:29:10.028Z,-0.20
2022-12-12T09:31:36.696Z,-0.30
2022-12-12T09:34:03.481Z,-0.30
2022-12-12T09:36:30.131Z,-0.20
2022-12-12T09:38:56.771Z,-0.10
2022-12-12T09:41:27.078Z,0.00
2022-12-12T09:43:53.913Z,0.00
2022-12-12T09:46:40.850Z,0.10
2022-12-12T09:49:38.396Z,0.20
2022-12-12T09:52:10.769Z,0.20
2022-12-12T09:54:37.458Z,0.20
2022-12-12T09:57:07.146Z,0.20
2022-12-12T09:59:52.603Z,0.10
2022-12-12T10:02:38.353Z,0.00
2022-12-12T10:05:14.097Z,-0.10
2022-12-12T10:07:53.937Z,-0.10
2022-12-12T10:10:33.563Z,-0.20
2022-12-12T10:13:01.363Z,-0.20
2022-12-12T10:15:36.840Z,-0.30
2022-12-12T10:18:05.403Z,-0.30
2022-12-12T10:20:33.521Z,-0.50
2022-12-12T10:23:26.459Z,-0.50
2022-12-12T10:25:53.139Z,-0.50
2022-12-12T10:28:20.900Z,-0.60
2022-12-12T10:30:53.600Z,-0.60
2022-12-12T10:33:34.914Z,-0.60
2022-12-12T10:36:01.772Z,-0.50
2022-12-12T10:38:31.531Z,-0.50
2022-12-12T10:41:17.118Z,-0.50
2022-12-12T10:43:43.703Z,-0.50
2022-12-12T10:46:10.504Z,-0.60
2022-12-12T10:48:37.264Z,-0.70
2022-12-12T10:51:05.160Z,-0.90
2022-12-12T10:53:32.297Z,-1.00
2022-12-12T10:56:00.446Z,-0.90
2022-12-12T10:58:28.531Z,-1.00
2022-12-12T11:01:02.727Z,-1.00
2022-12-12T11:03:32.892Z,-1.00
2022-12-12T11:06:03.092Z,-1.00
2022-12-12T11:08:36.651Z,-0.90
2022-12-12T11:11:06.399Z,-0.80
2022-12-12T11:13:40.101Z,-0.60
2022-12-12T11:16:13.162Z,-0.50
2022-12-12T11:18:40.215Z,-0.50
2022-12-12T11:21:11.551Z,-0.40
2022-12-12T11:23:47.544Z,-0.20
2022-12-12T11:26:16.512Z,-0.10
2022-12-12T11:28:45.515Z,0.20
2022-12-12T11:31:14.262Z,0.30
2022-12-12T11:33:45.051Z,0.30
2022-12-12T11:36:16.663Z,0.30
2022-12-12T11:38:48.874Z,0.30
2022-12-12T11:41:15.763Z,0.30
2022-12-12T11:43:45.393Z,0.10
2022-12-12T11:46:15.209Z,0.10
2022-12-12T11:48:51.088Z,0.00
2022-12-12T11:51:33.153Z,0.10
2022-12-12T11:53:59.872Z,0.10
2022-12-12T11:56:31.421Z,0.00
2022-12-12T11:59:01.135Z,-0.10
2022-12-12T12:01:46.177Z,-0.10
2022-12-12T12:04:26.757Z,-0.10
2022-12-12T12:07:13.064Z,-0.10
2022-12-12T12:09:45.868Z,-0.20
2022-12-12T12:12:17.752Z,-0.30
2022-12-12T12:14:56.681Z,-0.30
2022-12-12T12:17:30.275Z,-0.30
2022-12-12T12:20:00.039Z,-0.40
2022-12-12T12:22:45.402Z,-0.40
2022-12-12T12:25:27.454Z,-0.40
2022-12-12T12:27:57.148Z,-0.50
2022-12-12T12:30:29.923Z,-0.50
2022-12-12T12:33:34.934Z,-0.50
2022-12-12T12:36:09.130Z,-0.50
2022-12-12T12:38:56.835Z,-0.60
2022-12-12T12:41:33.811Z,-0.50
2022-12-12T12:44:19.378Z,-0.50
2022-12-12T12:46:55.469Z,-0.40
2022-12-12T12:49:27.497Z,-0.50
2022-12-12T12:52:07.315Z,-0.40
2022-12-12T12:54:38.911Z,-0.40
2022-12-12T12:57:09.718Z,-0.40
2022-12-12T12:59:44.914Z,-0.40
2022-12-12T13:02:34.653Z,-0.40
2022-12-12T13:05:07.057Z,-0.50
2022-12-12T13:07:46.306Z,-0.50
2022-12-12T13:10:19.042Z,-0.60
2022-12-12T13:12:48.930Z,-0.60
2022-12-12T13:15:18.624Z,-0.50
2022-12-12T13:18:11.066Z,-0.60
2022-12-12T13:20:40.676Z,-0.80
2022-12-12T13:23:26.247Z,-0.90
2022-12-12T13:25:57.891Z,-1.00
2022-12-12T13:28:31.562Z,-1.10
2022-12-12T13:31:17.201Z,-1.20
2022-12-12T13:33:46.625Z,-1.20
2022-12-12T13:36:33.152Z,-1.30
2022-12-12T13:39:00.616Z,-1.30
2022-12-12T13:41:27.314Z,-1.40
2022-12-12T13:43:58.126Z,-1.40
2022-12-12T13:46:24.821Z,-1.40
2022-12-12T13:49:06.789Z,-1.40
2022-12-12T13:51:34.786Z,-1.40
2022-12-12T13:54:12.583Z,-1.50
2022-12-12T13:56:43.213Z,-1.50
2022-12-12T13:59:36.140Z,-1.50
2022-12-12T14:02:35.503Z,-1.50
2022-12-12T14:05:07.622Z,-1.50
2022-12-12T14:07:34.643Z,-1.60
2022-12-12T14:10:13.557Z,-1.70
2022-12-12T14:12:40.734Z,-1.80
2022-12-12T14:15:17.944Z,-1.80
2022-12-12T14:17:51.477Z,-1.90
2022-12-12T14:20:26.932Z,-1.90
2022-12-12T14:22:59.651Z,-2.00
2022-12-12T14:25:36.258Z,-2.10
2022-12-12T14:28:13.540Z,-2.10
2022-12-12T14:30:44.809Z,-2.20
2022-12-12T14:33:17.760Z,-2.30
2022-12-12T14:35:44.420Z,-2.30
2022-12-12T14:38:27.843Z,-2.30
2022-12-12T14:40:59.007Z,-2.40
2022-12-12T14:43:26.965Z,-2.40
2022-12-12T14:45:55.970Z,-2.50
2022-12-12T14:48:22.579Z,-2.50
2022-12-12T14:50:51.944Z,-2.60
2022-12-12T14:53:21.319Z,-2.70
2022-12-12T14:55:52.419Z,-2.80
2022-12-12T14:58:20.275Z,-2.90
2022-12-12T15:00:48.973Z,-3.00
2022-12-12T15:03:16.269Z,-3.10
2022-12-12T15:05:42.965Z,-3.20
2022-12-12T15:08:18.582Z,-3.20
2022-12-12T15:10:45.467Z,-3.30
2022-12-12T15:13:16.503Z,-3.40
2022-12-12T15:15:43.588Z,-3.40
2022-12-12T15:18:10.609Z,-3.50
2022-12-12T15:20:37.448Z,-3.60
2022-12-12T15:23:07.318Z,-3.60
2022-12-12T15:25:37.086Z,-3.70
2022-12-12T15:28:03.800Z,-3.80
2022-12-12T15:30:41.320Z,-3.90
2022-12-12T15:33:18.701Z,-4.00
2022-12-12T15:35:57.864Z,-4.00
2022-12-12T15:38:26.399Z,-4.20
2022-12-12T15:40:57.723Z,-4.30
2022-12-12T15:43:25.512Z,-4.30
2022-12-12T15:45:52.355Z,-4.30
2022-12-12T15:48:19.410Z,-4.30
2022-12-12T15:50:46.069Z,-4.40
2022-12-12T15:53:29.532Z,-4.40
2022-12-12T15:55:59.323Z,-4.50
2022-12-12T15:58:37.381Z,-4.60
2022-12-12T16:01:21.097Z,-4.60
2022-12-12T16:03:59.614Z,-4.90
2022-12-12T16:06:26.316Z,-5.10
2022-12-12T16:08:54.364Z,-5.20
2022-12-12T16:11:32.154Z,-5.10
2022-12-12T16:13:59.296Z,-5.00
2022-12-12T16:16:35.240Z,-4.90
2022-12-12T16:19:02.518Z,-4.80
2022-12-12T16:21:32.472Z,-4.90
2022-12-12T16:24:09.594Z,-5.10
2022-12-12T16:26:36.398Z,-5.30
2022-12-12T16:29:03.941Z,-5.40
2022-12-12T16:31:31.107Z,-5.30
2022-12-12T16:34:01.679Z,-5.30
2022-12-12T16:36:28.525Z,-5.30
2022-12-12T16:38:55.269Z,-5.30
2022-12-12T16:41:22.875Z,-5.40
2022-12-12T16:43:49.740Z,-5.40
2022-12-12T16:46:20.496Z,-5.40
2022-12-12T16:48:47.409Z,-5.40
2022-12-12T16:51:18.247Z,-5.50
2022-12-12T16:53:44.984Z,-5.50
2022-12-12T16:56:11.703Z,-5.50
2022-12-12T16:58:38.942Z,-5.60
2022-12-12T17:01:05.869Z,-5.60
2022-12-12T17:03:32.891Z,-5.70
2022-12-12T17:06:00.023Z,-5.80
2022-12-12T17:08:26.965Z,-5.90
2022-12-12T17:11:10.215Z,-6.00
2022-12-12T17:13:39.352Z,-6.00
2022-12-12T17:16:06.086Z,-6.00
2022-12-12T17:18:32.905Z,-6.00
2022-12-12T17:21:00.046Z,-5.90
2022-12-12T17:23:29.822Z,-5.90
2022-12-12T17:26:03.054Z,-6.00
2022-12-12T17:28:31.304Z,-5.90
2022-12-12T17:30:58.049Z,-6.00
2022-12-12T17:33:25.668Z,-6.00
2022-12-12T17:36:03.549Z,-6.00
2022-12-12T17:38:30.584Z,-6.10
2022-12-12T17:40:58.286Z,-6.10
2022-12-12T17:43:25.620Z,-6.20
2022-12-12T17:45:59.658Z,-6.20
2022-12-12T17:48:30.815Z,-6.30
2022-12-12T17:50:58.637Z,-6.30
2022-12-12T17:53:25.652Z,-6.30
2022-12-12T17:56:00.915Z,-6.30
2022-12-12T17:58:31.717Z,-6.30
2022-12-12T18:00:58.636Z,-6.40
2022-12-12T18:03:25.365Z,-6.40
2022-12-12T18:05:51.970Z,-6.40
2022-12-12T18:08:18.837Z,-6.40
2022-12-12T18:10:45.577Z,-6.40
2022-12-12T18:13:12.227Z,-6.40
2022-12-12T18:15:39.011Z,-6.50
2022-12-12T18:18:05.708Z,-6.50
2022-12-12T18:20:33.594Z,-6.60
2022-12-12T18:23:00.342Z,-6.60
2022-12-12T18:25:27.068Z,-6.60
2022-12-12T18:27:53.881Z,-6.70
2022-12-12T18:30:20.776Z,-6.70
2022-12-12T18:32:47.605Z,-6.80
2022-12-12T18:35:14.274Z,-6.80
2022-12-12T18:37:40.870Z,-6.80
2022-12-12T18:40:07.687Z,-6.80
2022-12-12T18:42:34.385Z,-6.90
2022-12-12T18:45:01.259Z,-6.90
2022-12-12T18:47:27.904Z,-6.90
2022-12-12T18:49:54.587Z,-7.00
2022-12-12T18:52:21.347Z,-7.10
2022-12-12T18:54:48.066Z,-7.30
2022-12-12T18:57:14.726Z,-7.40
2022-12-12T18:59:41.465Z,-7.50
2022-12-12T19:02:12.284Z,-7.50
2022-12-12T19:04:39.212Z,-7.50
2022-12-12T19:07:05.844Z,-7.40
2022-12-12T19:09:32.647Z,-7.40
2022-12-12T19:12:02.552Z,-7.40
2022-12-12T19:14:45.972Z,-7.40
2022-12-12T19:17:25.246Z,-7.40
2022-12-12T19:19:56.572Z,-7.40
2022-12-12T19:25:10.436Z,-7.40
2022-12-12T19:27:38.198Z,-7.50
2022-12-12T19:30:05.315Z,-7.50
2022-12-12T19:32:31.955Z,-7.50
2022-12-12T19:34:59.728Z,-7.60
2022-12-12T19:37:26.471Z,-7.50
2022-12-12T19:39:54.753Z,-7.50
2022-12-12T19:42:21.429Z,-7.50
2022-12-12T19:44:48.264Z,-7.60
2022-12-12T19:47:21.420Z,-7.60
2022-12-12T19:49:49.223Z,-7.70
2022-12-12T19:52:16.499Z,-7.70
2022-12-12T19:54:47.283Z,-7.80
2022-12-12T19:57:14.007Z,-7.90
2022-12-12T19:59:40.598Z,-7.90
2022-12-12T20:02:16.547Z,-7.90
2022-12-12T20:04:43.174Z,-7.90
2022-12-12T20:07:09.879Z,-7.90
2022-12-12T20:09:40.435Z,-7.90
2022-12-12T20:12:08.190Z,-7.90
2022-12-12T20:14:36.873Z,-7.90
2022-12-12T20:17:06.186Z,-7.90
2022-12-12T20:19:33.968Z,-7.80
2022-12-12T20:22:11.560Z,-7.90
2022-12-12T20:24:40.728Z,-8.00
2022-12-12T20:30:31.162Z,-8.10
2022-12-12T20:33:12.309Z,-8.00
2022-12-12T20:35:49.888Z,-8.10
2022-12-12T20:38:19.288Z,-8.00
2022-12-12T20:40:46.026Z,-8.00
2022-12-12T20:43:18.575Z,-8.00
2022-12-12T20:48:39.432Z,-8.10
2022-12-12T20:51:30.984Z,-8.20
2022-12-12T20:53:58.034Z,-8.20
2022-12-12T20:56:24.952Z,-8.10
2022-12-12T20:58:53.546Z,-8.10
2022-12-12T21:01:21.582Z,-8.20
2022-12-12T21:04:09.545Z,-8.20
2022-12-12T21:06:38.207Z,-8.20
2022-12-12T21:09:08.151Z,-8.20
2022-12-12T21:11:35.523Z,-8.20
2022-12-12T21:14:02.621Z,-8.30
2022-12-12T21:16:31.084Z,-8.30
2022-12-12T21:19:02.050Z,-8.30
2022-12-12T21:21:38.402Z,-8.30
2022-12-12T21:24:15.359Z,-8.30
2022-12-12T21:26:47.506Z,-8.30
2022-12-12T21:30:13.681Z,-8.30
2022-12-12T21:32:30.996Z,-8.20
2022-12-12T21:34:57.658Z,-8.30
2022-12-12T21:37:24.411Z,-8.30
2022-12-12T21:39:53.425Z,-8.30
2022-12-12T21:42:21.355Z,-8.30
2022-12-12T21:44:48.002Z,-8.30
2022-12-12T21:47:14.711Z,-8.30
2022-12-12T21:49:41.421Z,-8.30
2022-12-12T21:52:12.741Z,-8.40
2022-12-12T21:54:39.807Z,-8.40
2022-12-12T21:57:07.988Z,-8.40
2022-12-12T21:59:37.543Z,-8.40
2022-12-12T22:02:07.099Z,-8.40
2022-12-12T22:04:33.925Z,-8.40
2022-12-12T22:07:00.598Z,-8.50
2022-12-12T22:09:27.313Z,-8.50
2022-12-12T22:12:03.868Z,-8.60
2022-12-12T22:14:31.358Z,-8.60
2022-12-12T22:16:58.034Z,-8.60
2022-12-12T22:19:24.685Z,-8.70
2022-12-12T22:21:51.390Z,-8.70
2022-12-12T22:24:18.115Z,-8.70
2022-12-12T22:26:48.764Z,-8.70
2022-12-12T22:29:17.104Z,-8.70
2022-12-12T22:31:44.837Z,-8.70
2022-12-12T22:34:13.380Z,-8.70
2022-12-12T22:36:40.097Z,-8.60
2022-12-12T22:39:08.003Z,-8.60
2022-12-12T22:41:34.630Z,-8.70
2022-12-12T22:44:02.221Z,-8.70
2022-12-12T22:46:29.289Z,-8.70
2022-12-12T22:48:57.324Z,-8.70
2022-12-12T22:51:25.576Z,-8.80
2022-12-12T22:53:54.568Z,-8.80
2022-12-12T22:56:21.189Z,-8.80
2022-12-12T22:58:47.965Z,-8.90
2022-12-12T23:01:16.179Z,-8.80
2022-12-12T23:03:43.480Z,-8.90
2022-12-12T23:06:30.434Z,-8.90
2022-12-12T23:08:58.132Z,-8.90
2022-12-12T23:11:25.635Z,-9.00
2022-12-12T23:13:56.782Z,-9.00
2022-12-12T23:16:27.588Z,-9.10
2022-12-12T23:18:54.537Z,-9.10
2022-12-12T23:21:22.241Z,-9.10
2022-12-12T23:23:49.307Z,-9.10
2022-12-12T23:26:17.788Z,-9.10
2022-12-12T23:28:44.908Z,-9.10
2022-12-12T23:31:12.863Z,-9.20
2022-12-12T23:33:39.657Z,-9.30
2022-12-12T23:36:12.301Z,-9.40
2022-12-12T23:38:39.157Z,-9.50
2022-12-12T23:41:10.888Z,-9.60
2022-12-12T23:43:40.286Z,-9.60
2022-12-12T23:46:29.131Z,-9.60
2022-12-12T23:49:06.334Z,-9.60
2022-12-12T23:51:46.240Z,-9.60
2022-12-12T23:54:25.986Z,-9.70
2022-12-12T23:56:53.385Z,-9.70
2022-12-12T23:59:22.917Z,-9.80
